Departure
Mackay Airport
Mackay, AU
cloud Weather
- Wind
- 240° / 6 kt
- Visibility
- 6 SM
- Ceiling
- CLR
- Temp / Dew
- 16°C / 15°C
- Altimeter
- 30.18 inHg
Obs: 2026-09-02T12:30:00.000Z
Raw METAR
METAR YBMK 021230Z AUTO 24006KT 9999 // NCD 16/15 Q1022
route Route
Departure
Mackay, AU
Obs: 2026-09-02T12:30:00.000Z
METAR YBMK 021230Z AUTO 24006KT 9999 // NCD 16/15 Q1022
Arrival
Brisbane, AU
Obs: 2026-09-02T12:30:00.000Z
METAR YBBN 021230Z AUTO 01013KT 9999 // NCD 19/15 Q1021 TAF YBBN 021128Z 0212/0318 34008KT CAVOK FM030000 01014KT CAVOK FM031000 36008KT CAVOK
| Airline | Flights shown |
|---|---|
| Virgin Australia | 24 |
| Jetstar Airways | 11 |
| Qantas | 1 |
| Date | Flight | Aircraft | Takeoff | Landing | Duration | Arr Δ |
|---|---|---|---|---|---|---|
| 2026-07-26 | VOZ600 | 7C7A4C | Jul 26, 20:25 UTC | Jul 26, 21:30 UTC | 1h 5m | - |
| 2026-07-26 | JST889 | 7C6B0F | Jul 26, 10:45 UTC | Jul 26, 11:45 UTC | 1h 0m | - |
| 2026-07-26 | VOZ616 | 7C29D8 | Jul 26, 08:05 UTC | Jul 26, 09:10 UTC | 1h 5m | - |
| 2026-07-26 | JST891 | 7C6B0D | Jul 26, 05:00 UTC | Jul 26, 06:20 UTC | 1h 20m | - |
| 2026-07-26 | VOZ610 | 7C6D38 | Jul 26, 04:25 UTC | Jul 26, 05:30 UTC | 1h 5m | - |
| 2026-07-26 | VOZ608 | 7C7A4C | Jul 26, 01:40 UTC | Jul 26, 02:45 UTC | 1h 5m | - |
| 2026-07-25 | VOZ600 | 7C6D2B | Jul 25, 20:30 UTC | Jul 25, 21:35 UTC | 1h 5m | - |
| 2026-07-25 | VOZ608 | 7C6D2A | Jul 25, 01:35 UTC | Jul 25, 02:40 UTC | 1h 5m | - |
| 2026-07-24 | VOZ600 | 7C6C52 | Jul 24, 20:25 UTC | Jul 24, 21:30 UTC | 1h 5m | - |
| 2026-07-24 | JST889 | 7C6B3D | Jul 24, 11:15 UTC | Jul 24, 12:20 UTC | 1h 5m | - |
| 2026-07-24 | VOZ616 | 7C7BCC | Jul 24, 08:00 UTC | Jul 24, 09:00 UTC | 1h 0m | - |
| 2026-07-24 | JST891 | 7C6B41 | Jul 24, 04:40 UTC | Jul 24, 06:05 UTC | 1h 25m | - |
| 2026-07-24 | VOZ610 | 7C6C55 | Jul 24, 04:15 UTC | Jul 24, 05:30 UTC | 1h 15m | - |
| 2026-07-24 | VOZ608 | 7C7AA7 | Jul 24, 01:25 UTC | Jul 24, 02:35 UTC | 1h 10m | - |
| 2026-07-23 | VOZ604 | 7C6C55 | Jul 23, 22:30 UTC | Jul 23, 23:35 UTC | 1h 5m | - |
| 2026-07-23 | VOZ600 | 7C6D38 | Jul 23, 20:30 UTC | Jul 23, 21:40 UTC | 1h 10m | - |
| 2026-07-23 | JST889 | 7C6B3D | Jul 23, 10:25 UTC | Jul 23, 11:35 UTC | 1h 10m | - |
| 2026-07-23 | VOZ616 | 7CAD46 | Jul 23, 07:45 UTC | Jul 23, 09:05 UTC | 1h 20m | - |
| 2026-07-23 | JST891 | 7C6B1C | Jul 23, 04:55 UTC | Jul 23, 06:15 UTC | 1h 20m | - |
| 2026-07-23 | VOZ610 | 7C29D5 | Jul 23, 04:10 UTC | Jul 23, 05:20 UTC | 1h 10m | - |
| 2026-07-23 | VOZ608 | 7C6D33 | Jul 23, 02:45 UTC | Jul 23, 03:50 UTC | 1h 5m | - |
| 2026-07-22 | VOZ604 | 7C6D2B | Jul 22, 23:05 UTC | Jul 23, 00:15 UTC | 1h 10m | - |
| 2026-07-22 | VOZ600 | 7C6D2A | Jul 22, 20:55 UTC | Jul 22, 22:50 UTC | 1h 55m | - |
| 2026-07-22 | JST891 | 7C6B09 | Jul 22, 04:50 UTC | Jul 22, 05:25 UTC | 35m | - |
| 2026-07-22 | VOZ610 | 7C2BAF | Jul 22, 04:10 UTC | Jul 22, 05:20 UTC | 1h 10m | - |
| 2026-07-22 | VOZ608 | 7C6D2A | Jul 22, 01:35 UTC | Jul 22, 02:40 UTC | 1h 5m | - |
| 2026-07-21 | VOZ600 | 7C6D2B | Jul 21, 20:25 UTC | Jul 21, 21:30 UTC | 1h 5m | - |
| 2026-07-21 | JST889 | 7C7888 | Jul 21, 10:50 UTC | Jul 21, 12:00 UTC | 1h 10m | - |
| 2026-07-21 | VOZ616 | 7C7BC7 | Jul 21, 07:30 UTC | Jul 21, 08:40 UTC | 1h 10m | - |
| 2026-07-21 | QLK1827 | 7C68AE | Jul 21, 05:10 UTC | Jul 21, 06:20 UTC | 1h 10m | - |
| 2026-07-21 | VOZ610 | 7C6C56 | Jul 21, 04:00 UTC | Jul 21, 05:10 UTC | 1h 10m | - |
| 2026-07-21 | VOZ608 | 7CAF1B | Jul 21, 01:40 UTC | Jul 21, 02:50 UTC | 1h 10m | - |
| 2026-07-21 | QLK1823 | 7C68AE | Jul 21, 00:40 UTC | Jul 21, 01:50 UTC | 1h 10m | - |
| 2026-07-20 | VOZ600 | 7C7A4A | Jul 20, 20:25 UTC | Jul 20, 21:30 UTC | 1h 5m | - |
| 2026-07-20 | JST889 | 7C6B36 | Jul 20, 10:30 UTC | Jul 20, 11:45 UTC | 1h 15m | - |
| 2026-07-20 | JST891 | 7C7885 | Jul 20, 04:35 UTC | Jul 20, 06:05 UTC | 1h 30m | - |
| 2026-07-19 | QFA985 | 7C77F8 | Jul 19, 22:30 UTC | Jul 19, 23:40 UTC | 1h 10m | - |
| 2026-07-19 | VOZ600 | 7C2BAF | Jul 19, 20:35 UTC | Jul 19, 21:50 UTC | 1h 15m | - |
| 2026-07-19 | JST891 | 7C6B14 | Jul 19, 04:35 UTC | Jul 19, 06:10 UTC | 1h 35m | - |
| 2026-07-19 | VOZ608 | 7C7A4C | Jul 19, 01:50 UTC | Jul 19, 03:05 UTC | 1h 15m | - |
| 2026-07-17 | QLK1825 | 7C68B8 | Jul 17, 03:05 UTC | Jul 17, 04:25 UTC | 1h 20m | - |
| 2026-07-16 | QLK1831 | 7C03F5 | Jul 16, 09:55 UTC | Jul 16, 11:10 UTC | 1h 15m | - |
| 2026-07-12 | VOZ616 | 7C7A4B | Jul 12, 08:01 UTC | Jul 12, 09:15 UTC | 1h 15m | - |
| 2026-07-10 | VOZ600 | 7C6D36 | Jul 10, 20:25 UTC | Jul 10, 21:40 UTC | 1h 15m | - |
| 2026-07-10 | QLK1825 | 7C68B6 | Jul 10, 03:15 UTC | Jul 10, 04:25 UTC | 1h 10m | - |
| 2026-07-08 | JST889 | 7C7889 | Jul 8, 10:45 UTC | Jul 8, 11:55 UTC | 1h 10m | - |
| 2026-07-08 | QLK1827 | 7C68A5 | Jul 8, 05:10 UTC | Jul 8, 06:20 UTC | 1h 10m | - |
| 2026-07-08 | VOZ610 | 7C7A4B | Jul 8, 04:15 UTC | Jul 8, 05:25 UTC | 1h 10m | - |
| 2026-07-07 | JST889 | 7C6B18 | Jul 7, 10:25 UTC | Jul 7, 11:30 UTC | 1h 5m | - |
| 2026-07-06 | QLK1821 | 7C68A5 | Jul 6, 22:10 UTC | Jul 6, 23:20 UTC | 1h 10m | - |